Time;durP1;ratioP1;P1;durP2;ratioP2;P2;SDS_P1;SDS_P2;PMS_P1;PMS_P2;Temp;Humidity;BMP_temperature;BMP_pressure;BME280_temperature;BME280_humidity;BME280_pressure;Samples;Min_cycle;Max_cycle;Signal;HPM_P1;HPM_P2
2021/10/25 00:01:57;;;;;;;3.60;1.57;;;;;;;4.09;75.93;102190.16;1749970;80;21195;-42
2021/10/25 00:04:23;;;;;;;2.25;1.70;;;;;;;4.10;76.06;102191.02;1749965;82;20877;-44
2021/10/25 00:06:50;;;;;;;2.83;1.90;;;;;;;4.10;75.64;102197.03;1738845;81;20921;-42
2021/10/25 00:09:17;;;;;;;1.95;1.75;;;;;;;4.10;75.70;102192.30;1732670;82;21023;-43
2021/10/25 00:11:47;;;;;;;1.77;1.37;;;;;;;4.09;75.71;102198.23;1735888;82;20945;-42
2021/10/25 00:14:13;;;;;;;2.15;1.40;;;;;;;4.07;75.77;102199.87;1735975;82;21776;-43
2021/10/25 00:16:44;;;;;;;1.77;1.67;;;;;;;4.08;75.85;102205.47;1735816;82;21012;-43
2021/10/25 00:19:12;;;;;;;3.10;1.60;;;;;;;4.06;76.04;102207.10;1736017;82;20976;-42
2021/10/25 00:21:39;;;;;;;4.45;1.92;;;;;;;4.03;76.05;102205.28;1736085;81;21455;-43
2021/10/25 00:24:06;;;;;;;2.80;1.30;;;;;;;4.03;75.86;102205.28;1735974;82;20928;-43
2021/10/25 00:26:33;;;;;;;2.25;1.92;;;;;;;4.00;75.90;102203.50;1736256;82;21094;-42
2021/10/25 00:29:00;;;;;;;4.92;2.05;;;;;;;4.02;76.16;102211.23;1733120;82;21494;-43
2021/10/25 00:31:27;;;;;;;2.08;1.55;;;;;;;3.99;76.25;102214.57;1735870;82;20932;-43
2021/10/25 00:33:54;;;;;;;4.10;1.47;;;;;;;3.97;76.62;102218.77;1735887;82;20945;-42
2021/10/25 00:36:20;;;;;;;1.75;1.65;;;;;;;3.97;76.62;102218.77;1735965;82;20937;-44
2021/10/25 00:38:47;;;;;;;2.05;1.67;;;;;;;3.96;76.24;102218.30;1736270;82;21797;-42
2021/10/25 00:41:13;;;;;;;2.10;1.90;;;;;;;3.96;76.57;102214.86;1735829;82;20874;-43
2021/10/25 00:43:40;;;;;;;4.72;1.90;;;;;;;3.95;76.61;102219.13;1735886;81;20960;-43
2021/10/25 00:46:10;;;;;;;6.53;1.98;;;;;;;3.93;76.63;102219.48;1735955;82;20973;-43
2021/10/25 00:48:37;;;;;;;3.60;2.00;;;;;;;3.93;76.83;102216.91;1736161;82;20910;-43
2021/10/25 00:51:06;;;;;;;3.12;2.00;;;;;;;3.91;76.84;102210.83;1736164;82;21821;-43
2021/10/25 00:53:33;;;;;;;2.12;1.85;;;;;;;3.90;76.89;102212.08;1735793;82;20980;-43
2021/10/25 00:56:01;;;;;;;1.60;1.47;;;;;;;3.89;77.00;102218.88;1736108;82;20881;-43
2021/10/25 00:58:28;;;;;;;1.85;1.75;;;;;;;3.85;76.97;102218.30;1736143;82;20968;-43
2021/10/25 01:00:54;;;;;;;1.60;1.50;;;;;;;3.85;76.97;102218.30;1691243;82;20909;-43
2021/10/25 01:03:21;;;;;;;3.40;2.02;;;;;;;3.84;77.16;102222.95;1734292;82;21115;-43
2021/10/25 01:05:47;;;;;;;3.80;1.62;;;;;;;3.81;77.33;102224.13;1737589;81;21466;-43
2021/10/25 01:08:14;;;;;;;2.60;1.80;;;;;;;3.78;77.36;102227.43;1744011;82;20929;-42
2021/10/25 01:10:41;;;;;;;4.15;1.77;;;;;;;3.78;77.07;102228.71;1714854;82;20881;-42
2021/10/25 01:13:09;;;;;;;1.80;1.70;;;;;;;3.79;77.00;102228.32;1714721;82;20999;-41
2021/10/25 01:15:36;;;;;;;4.53;1.70;;;;;;;3.74;77.11;102233.26;1744209;81;21791;-41
2021/10/25 01:18:03;;;;;;;2.00;1.80;;;;;;;3.74;77.11;102233.26;1743961;82;20877;-41
2021/10/25 01:20:31;;;;;;;2.62;1.70;;;;;;;3.73;77.08;102236.64;1744118;82;20929;-41
2021/10/25 01:22:58;;;;;;;1.72;1.62;;;;;;;3.73;77.27;102234.08;1744142;82;21533;-42
2021/10/25 01:25:24;;;;;;;4.72;1.98;;;;;;;3.71;77.59;102231.47;1743991;82;21015;-42
2021/10/25 01:27:55;;;;;;;2.70;1.80;;;;;;;3.69;77.55;102236.95;1744166;82;22075;-42
2021/10/25 01:30:21;;;;;;;2.20;1.32;;;;;;;3.68;77.73;102245.45;1714894;82;20978;-42
2021/10/25 01:32:49;;;;;;;3.95;1.62;;;;;;;3.64;77.96;102241.41;1744239;82;21469;-42
2021/10/25 01:35:16;;;;;;;2.08;1.42;;;;;;;3.64;77.96;102241.41;1744058;82;20865;-42
2021/10/25 01:37:42;;;;;;;1.70;1.47;;;;;;;3.64;77.58;102246.11;1744101;82;20873;-42
2021/10/25 01:40:11;;;;;;;5.72;1.77;;;;;;;3.58;77.56;102244.21;1744116;82;21157;-42
2021/10/25 01:42:38;;;;;;;1.87;1.60;;;;;;;3.58;77.56;102244.21;1744231;81;21008;-42
2021/10/25 01:45:07;;;;;;;4.92;1.98;;;;;;;3.57;77.57;102241.58;1714303;82;21463;-42
2021/10/25 01:47:34;;;;;;;5.17;1.65;;;;;;;3.56;77.60;102244.56;1744231;82;20917;-42
2021/10/25 01:50:01;;;;;;;1.47;1.37;;;;;;;3.57;77.55;102250.54;1744100;82;20976;-42
2021/10/25 01:52:29;;;;;;;1.67;1.50;;;;;;;3.54;77.73;102245.30;1744178;82;21863;-42
2021/10/25 01:54:57;;;;;;;3.33;1.50;;;;;;;3.53;77.79;102251.23;1744198;81;21203;-42
2021/10/25 01:57:24;;;;;;;4.30;1.60;;;;;;;3.51;77.92;102252.87;1744079;82;20980;-42
2021/10/25 01:59:50;;;;;;;5.42;1.20;;;;;;;3.50;77.76;102252.40;1715045;82;20901;-42
2021/10/25 02:02:19;;;;;;;2.22;1.72;;;;;;;3.47;77.98;102248.44;1744417;82;20861;-41
2021/10/25 02:04:45;;;;;;;4.37;1.60;;;;;;;3.41;78.31;102261.47;1744035;82;21787;-42
2021/10/25 02:07:12;;;;;;;2.70;1.70;;;;;;;3.41;78.31;102261.47;1725058;81;21498;-42
2021/10/25 02:09:39;;;;;;;2.15;1.70;;;;;;;3.40;78.17;102261.40;1757516;80;20920;-42
2021/10/25 02:12:06;;;;;;;2.25;1.60;;;;;;;3.38;78.25;102260.05;1729738;81;20992;-41
2021/10/25 02:14:33;;;;;;;1.70;1.50;;;;;;;3.35;78.26;102263.77;1757590;80;21024;-42
2021/10/25 02:17:00;;;;;;;1.90;1.50;;;;;;;3.33;78.31;102263.25;1757661;81;21149;-41
2021/10/25 02:19:29;;;;;;;1.85;1.70;;;;;;;3.30;78.58;102262.70;1756911;81;21019;-42
2021/10/25 02:21:57;;;;;;;1.70;1.57;;;;;;;3.29;78.74;102267.36;1757082;81;21544;-42
2021/10/25 02:24:24;;;;;;;5.53;1.80;;;;;;;3.28;78.75;102270.73;1757558;81;20994;-42
2021/10/25 02:26:51;;;;;;;2.83;1.72;;;;;;;3.26;78.94;102273.22;1757534;81;20952;-42
2021/10/25 02:29:17;;;;;;;5.30;1.98;;;;;;;3.24;79.24;102272.70;1757730;81;21111;-42
2021/10/25 02:31:44;;;;;;;2.87;1.55;;;;;;;3.20;78.93;102267.00;1757451;81;20920;-42
2021/10/25 02:34:11;;;;;;;2.55;1.55;;;;;;;3.19;78.94;102272.93;1757517;81;20908;-43
2021/10/25 02:36:37;;;;;;;1.67;1.52;;;;;;;3.17;78.92;102266.45;1729529;81;21660;-43
2021/10/25 02:39:05;;;;;;;2.80;2.10;;;;;;;3.13;79.11;102278.23;1756488;81;21451;-41
2021/10/25 02:41:32;;;;;;;3.22;1.85;;;;;;;3.10;79.37;102289.62;1757591;81;21112;-42
2021/10/25 02:44:00;;;;;;;3.37;1.75;;;;;;;3.07;79.40;102292.06;1729649;81;20984;-42
2021/10/25 02:46:27;;;;;;;1.90;1.70;;;;;;;3.03;79.21;102292.75;1757562;81;21450;-42
2021/10/25 02:48:53;;;;;;;1.75;1.45;;;;;;;3.00;79.06;102287.52;1757494;81;20865;-42
2021/10/25 02:51:20;;;;;;;3.90;1.62;;;;;;;2.93;79.03;102292.77;1757566;81;20964;-42
2021/10/25 02:53:49;;;;;;;1.87;1.47;;;;;;;2.93;79.03;102292.77;1757565;81;21831;-42
2021/10/25 02:56:15;;;;;;;6.67;1.52;;;;;;;2.87;78.89;102299.77;1757537;81;20892;-42
2021/10/25 02:58:42;;;;;;;2.95;1.77;;;;;;;2.83;78.78;102301.73;1729754;81;20984;-42
2021/10/25 03:01:09;;;;;;;2.02;1.67;;;;;;;2.82;78.78;102306.38;1757545;81;20964;-42
2021/10/25 03:03:35;;;;;;;1.70;1.60;;;;;;;2.80;78.89;102308.41;1757684;81;20999;-42
2021/10/25 03:06:02;;;;;;;2.05;1.52;;;;;;;2.75;78.93;102304.75;1757160;81;21584;-43
2021/10/25 03:08:29;;;;;;;4.37;1.45;;;;;;;2.69;79.01;102307.94;1749959;81;20967;-42
2021/10/25 03:10:57;;;;;;;3.20;1.65;;;;;;;2.66;78.99;102309.09;1749913;82;20928;-42
2021/10/25 03:13:24;;;;;;;3.08;1.57;;;;;;;2.63;79.07;102313.66;1749979;82;20983;-42
2021/10/25 03:15:53;;;;;;;1.45;1.30;;;;;;;2.59;79.16;102315.61;1749875;82;21606;-42
2021/10/25 03:18:22;;;;;;;2.87;1.52;;;;;;;2.55;79.44;102315.01;1722406;82;21053;-42
2021/10/25 03:20:49;;;;;;;1.40;1.30;;;;;;;2.52;79.52;102315.73;1749861;80;20892;-43
2021/10/25 03:23:15;;;;;;;1.77;1.35;;;;;;;2.52;79.65;102318.29;1749755;82;21627;-42
2021/10/25 03:25:42;;;;;;;5.08;1.85;;;;;;;2.53;79.83;102321.31;1750073;82;20967;-42
2021/10/25 03:28:09;;;;;;;1.57;1.47;;;;;;;2.55;80.09;102326.09;1750196;82;20928;-42
2021/10/25 03:30:36;;;;;;;1.57;1.40;;;;;;;2.56;80.31;102326.98;1750028;82;21912;-43
2021/10/25 03:33:04;;;;;;;3.90;1.02;;;;;;;2.56;80.40;102330.82;1749974;81;20937;-43
2021/10/25 03:35:42;;;;;;;1.72;1.35;;;;;;;2.56;80.34;102338.07;1749116;82;20933;-42
2021/10/25 03:38:12;;;;;;;2.15;1.47;;;;;;;2.54;80.39;102335.85;1749852;80;20928;-43
2021/10/25 03:40:42;;;;;;;2.25;1.98;;;;;;;2.54;80.63;102340.11;1750023;82;20980;-43
2021/10/25 03:43:08;;;;;;;4.70;1.62;;;;;;;2.52;80.75;102341.30;1722226;82;21109;-43
2021/10/25 03:48:25;;;;;;;3.65;1.70;;;;;;;2.48;81.10;102348.75;1719713;82;20956;-41
2021/10/25 03:50:39;;;;;;;1.50;1.40;;;;;;;2.46;81.19;102346.53;1747327;82;21489;-42
2021/10/25 03:55:55;;;;;;;8.10;2.08;;;;;;;2.40;81.57;102354.79;1749941;82;20948;-43
2021/10/25 04:28:20;;;;;;;2.08;1.87;;;;;;;1.91;84.09;102375.98;1749958;82;20956;-42
2021/10/25 04:30:41;;;;;;;3.12;2.30;;;;;;;1.85;83.99;102378.22;1749018;82;20971;-42
2021/10/25 04:33:08;;;;;;;3.75;2.25;;;;;;;1.78;84.17;102380.02;1749924;82;20972;-42
2021/10/25 04:35:45;;;;;;;1.87;1.72;;;;;;;1.70;84.25;102380.91;1749021;82;21038;-42
2021/10/25 04:38:14;;;;;;;2.25;1.95;;;;;;;1.66;84.37;102389.23;1741887;82;20936;-41
2021/10/25 04:40:40;;;;;;;2.33;2.10;;;;;;;1.61;84.35;102399.20;1750186;82;20925;-42
2021/10/25 04:43:17;;;;;;;3.40;1.70;;;;;;;1.57;84.22;102400.75;1722125;82;20929;-42
2021/10/25 04:45:42;;;;;;;1.32;1.22;;;;;;;1.51;83.99;102400.41;1749053;82;20976;-42
2021/10/25 04:48:08;;;;;;;4.97;1.85;;;;;;;1.47;83.71;102402.77;1749748;82;21799;-42
2021/10/25 04:50:43;;;;;;;1.77;1.30;;;;;;;1.42;83.47;102412.34;1745720;82;20980;-43
2021/10/25 04:53:11;;;;;;;2.30;1.55;;;;;;;1.40;83.15;102410.50;1747931;82;20968;-43
2021/10/25 04:55:37;;;;;;;2.15;1.47;;;;;;;1.37;82.96;102411.20;1749873;82;20985;-43
2021/10/25 04:58:04;;;;;;;3.40;1.75;;;;;;;1.35;82.92;102415.77;1749729;81;20861;-43
2021/10/25 05:00:31;;;;;;;1.87;1.22;;;;;;;1.31;82.89;102418.56;1749877;82;21850;-42
2021/10/25 05:02:59;;;;;;;2.98;1.50;;;;;;;1.31;82.89;102424.08;1749935;82;20917;-43
2021/10/25 05:05:25;;;;;;;2.70;1.40;;;;;;;1.32;82.88;102429.25;1749917;82;20956;-42
2021/10/25 05:07:53;;;;;;;1.27;1.20;;;;;;;1.32;82.35;102430.52;1749751;81;20917;-42
2021/10/25 05:10:19;;;;;;;1.90;1.72;;;;;;;1.33;81.98;102435.23;1749974;80;21513;-42
2021/10/25 05:12:47;;;;;;;2.15;1.47;;;;;;;1.34;81.49;102435.72;1749851;82;21256;-42
2021/10/25 05:15:15;;;;;;;2.40;1.20;;;;;;;1.35;80.76;102442.16;1749718;82;21031;-42
2021/10/25 05:17:41;;;;;;;1.27;1.02;;;;;;;1.39;80.09;102454.69;1722235;82;21522;-42
2021/10/25 05:20:10;;;;;;;2.98;1.42;;;;;;;1.40;79.38;102454.78;1749770;82;20959;-42
2021/10/25 05:22:38;;;;;;;2.47;1.55;;;;;;;1.42;78.94;102451.91;1749958;82;20992;-42
2021/10/25 05:25:06;;;;;;;4.15;1.55;;;;;;;1.47;78.32;102461.05;1721983;82;21946;-42
2021/10/25 05:27:32;;;;;;;2.27;1.50;;;;;;;1.51;77.69;102458.27;1749790;82;20949;-42
2021/10/25 05:29:59;;;;;;;2.02;1.10;;;;;;;1.55;77.54;102462.34;1749835;82;20929;-42
2021/10/25 05:32:25;;;;;;;2.17;1.55;;;;;;;1.60;77.20;102464.25;1750013;82;21022;-42
2021/10/25 05:34:52;;;;;;;2.35;1.60;;;;;;;1.62;76.99;102465.20;1749899;82;20979;-42
2021/10/25 05:37:19;;;;;;;1.62;1.20;;;;;;;1.65;76.69;102473.91;1749651;81;21096;-42
2021/10/25 05:39:45;;;;;;;2.90;1.70;;;;;;;1.68;75.90;102471.89;1749664;81;20979;-42
2021/10/25 05:42:13;;;;;;;6.15;2.42;;;;;;;1.71;76.09;102485.70;1749850;82;21034;-42
2021/10/25 05:44:40;;;;;;;12.98;3.80;;;;;;;1.75;75.75;102494.79;1750113;82;21022;-42
2021/10/25 05:47:06;;;;;;;15.70;4.17;;;;;;;1.79;75.49;102491.58;1749993;82;20975;-42
2021/10/25 05:49:33;;;;;;;15.50;6.90;;;;;;;1.83;75.01;102496.94;1749634;82;21089;-42
2021/10/25 05:52:00;;;;;;;14.03;7.53;;;;;;;1.88;74.77;102499.70;1722109;82;20893;-45
2021/10/25 05:54:27;;;;;;;4.97;3.50;;;;;;;1.91;74.58;102496.05;1749885;82;20929;-41
2021/10/25 05:56:55;;;;;;;12.00;7.12;;;;;;;1.96;73.80;102502.26;1749555;82;20979;-42
2021/10/25 05:59:25;;;;;;;9.38;7.08;;;;;;;2.02;73.69;102506.77;1749718;82;20964;-42
2021/10/25 06:01:59;;;;;;;3.90;3.15;;;;;;;2.06;73.24;102504.87;1749721;82;21104;-42
2021/10/25 06:04:27;;;;;;;3.95;3.55;;;;;;;2.11;73.00;102505.08;1749822;82;20896;-41
2021/10/25 06:07:04;;;;;;;3.05;2.65;;;;;;;2.16;72.95;102507.48;1722001;81;21245;-42
2021/10/25 06:09:34;;;;;;;2.10;2.00;;;;;;;2.22;72.82;102512.89;1749749;82;20932;-42
2021/10/25 06:12:03;;;;;;;3.70;1.90;;;;;;;2.28;72.73;102504.23;1750122;82;20968;-42
2021/10/25 06:14:36;;;;;;;5.47;2.10;;;;;;;2.37;72.44;102509.30;1749645;82;21167;-42
2021/10/25 06:17:02;;;;;;;4.40;2.95;;;;;;;2.44;72.15;102509.68;1749939;81;20960;-42
2021/10/25 06:19:29;;;;;;;3.87;2.42;;;;;;;2.53;71.80;102513.51;1722430;82;20972;-42
2021/10/25 06:21:55;;;;;;;6.87;5.62;;;;;;;2.59;71.25;102504.42;1749591;82;21473;-42
2021/10/25 06:24:24;;;;;;;6.28;3.20;;;;;;;2.66;70.98;102508.16;1749401;82;20920;-42
2021/10/25 06:26:58;;;;;;;6.62;2.02;;;;;;;2.71;70.84;102515.63;1745006;82;21871;-41
2021/10/25 06:29:24;;;;;;;2.65;1.98;;;;;;;2.81;70.74;102514.39;1749903;82;20870;-41
2021/10/25 06:31:51;;;;;;;4.33;1.87;;;;;;;2.88;70.34;102511.30;1721920;82;20944;-42
2021/10/25 06:34:26;;;;;;;2.58;1.87;;;;;;;2.97;70.05;102518.95;1749996;82;21473;-42
2021/10/25 06:37:04;;;;;;;2.80;2.33;;;;;;;3.04;69.66;102516.27;1749990;81;20873;-42
2021/10/25 06:39:40;;;;;;;7.08;2.80;;;;;;;3.14;69.23;102512.89;1747727;82;21206;-42
2021/10/25 06:42:07;;;;;;;6.15;3.22;;;;;;;3.24;68.60;102512.91;1750037;82;21529;-43
2021/10/25 06:44:44;;;;;;;6.65;3.20;;;;;;;3.32;68.14;102513.25;1750249;82;20924;-42
2021/10/25 06:47:07;;;;;;;4.72;2.60;;;;;;;3.42;68.17;102523.50;1747937;82;21007;-42
2021/10/25 06:49:34;;;;;;;1.62;1.52;;;;;;;3.55;67.56;102519.41;1749886;81;20897;-42
2021/10/25 06:52:03;;;;;;;4.62;3.70;;;;;;;3.63;66.56;102519.72;1749839;82;21158;-43
2021/10/25 06:54:29;;;;;;;7.95;3.72;;;;;;;3.69;66.54;102520.39;1722142;82;20992;-42
2021/10/25 06:56:56;;;;;;;15.65;6.80;;;;;;;3.76;66.08;102515.99;1750075;80;20889;-42
2021/10/25 06:59:23;;;;;;;9.25;4.10;;;;;;;3.80;65.68;102515.34;1749906;82;20987;-41
2021/10/25 07:01:49;;;;;;;8.28;4.35;;;;;;;3.94;65.64;102524.89;1749839;82;21525;-41
2021/10/25 07:04:16;;;;;;;5.10;2.62;;;;;;;3.94;65.64;102524.89;1722403;82;21731;-43
2021/10/25 07:06:43;;;;;;;2.50;1.80;;;;;;;4.02;65.58;102529.92;1749787;82;20933;-42
2021/10/25 07:09:11;;;;;;;2.52;1.80;;;;;;;4.12;65.38;102521.33;1717489;82;20956;-41
2021/10/25 07:11:42;;;;;;;8.78;3.50;;;;;;;4.16;64.48;102524.48;1746266;82;21526;-42
2021/10/25 07:14:07;;;;;;;5.90;2.62;;;;;;;4.27;64.51;102525.81;1745370;82;20913;-42
2021/10/25 07:16:42;;;;;;;4.78;2.58;;;;;;;4.27;64.51;102525.81;1702432;82;21143;-42
2021/10/25 07:22:12;;;;;;;9.25;1.98;;;;;;;4.43;63.81;102524.73;1746266;82;20885;-42
2021/10/25 08:11:08;;;;;;;3.05;2.27;;;;;;;5.94;56.63;102531.55;1749446;80;21368;-42
2021/10/25 08:13:38;;;;;;;10.80;2.05;;;;;;;6.00;56.82;102519.30;1750016;82;21011;-42
2021/10/25 08:16:41;;;;;;;4.62;1.70;;;;;;;6.10;55.96;102526.94;1722026;82;20940;-42
2021/10/25 08:19:08;;;;;;;1.90;1.65;;;;;;;6.15;55.47;102524.99;1746468;82;20928;-43
2021/10/25 08:21:21;;;;;;;1.35;1.25;;;;;;;6.29;53.58;102522.87;1721388;82;21019;-42
2021/10/25 08:23:49;;;;;;;3.17;2.00;;;;;;;6.16;53.41;102528.42;1749817;82;21111;-43
2021/10/25 08:26:20;;;;;;;4.70;3.05;;;;;;;6.10;54.50;102533.37;1723528;82;20968;-41
2021/10/25 08:28:48;;;;;;;3.15;2.75;;;;;;;6.23;54.19;102537.22;1722306;82;20999;-42
2021/10/25 08:31:16;;;;;;;1.40;1.30;;;;;;;6.35;54.46;102527.34;1749902;82;20971;-43
2021/10/25 08:33:51;;;;;;;2.83;2.35;;;;;;;6.53;54.23;102539.03;1749979;82;20876;-42
2021/10/25 08:41:34;;;;;;;1.65;1.55;;;;;;;6.80;52.91;102532.98;1749944;82;20905;-43
2021/10/25 08:44:05;;;;;;;4.22;1.90;;;;;;;6.90;52.39;102529.45;1749763;82;20940;-41
2021/10/25 08:46:32;;;;;;;5.83;1.82;;;;;;;7.05;52.29;102531.61;1749905;82;21064;-41
2021/10/25 08:48:58;;;;;;;3.75;1.40;;;;;;;7.17;50.85;102528.52;1749874;82;21131;-43
2021/10/25 08:51:25;;;;;;;3.75;1.65;;;;;;;7.22;50.13;102536.39;1749838;82;20984;-42
2021/10/25 08:53:52;;;;;;;3.98;1.25;;;;;;;7.21;50.03;102540.23;1749773;82;21465;-43
2021/10/25 08:56:18;;;;;;;3.90;2.30;;;;;;;7.35;50.30;102542.77;1749928;82;21607;-42
2021/10/25 08:58:52;;;;;;;1.42;1.35;;;;;;;7.46;50.22;102541.38;1748873;82;21019;-43
2021/10/25 09:01:26;;;;;;;4.83;2.15;;;;;;;7.64;49.81;102537.97;1722117;82;21091;-42
2021/10/25 09:04:11;;;;;;;2.33;1.80;;;;;;;7.83;48.93;102536.34;1747346;82;20960;-42
2021/10/25 09:06:54;;;;;;;5.17;1.80;;;;;;;7.90;48.06;102535.66;1749860;82;27387;-42
2021/10/25 09:09:23;;;;;;;2.37;1.37;;;;;;;7.86;48.33;102537.71;1749706;81;20944;-43
2021/10/25 09:12:03;;;;;;;1.70;1.60;;;;;;;7.71;48.27;102548.50;1722039;82;21473;-43
2021/10/25 09:14:32;;;;;;;2.30;1.27;;;;;;;7.63;47.98;102543.52;1748535;82;21156;-43
2021/10/25 09:17:05;;;;;;;2.85;2.05;;;;;;;7.50;47.93;102544.03;1749720;80;20976;-44
2021/10/25 09:19:47;;;;;;;1.92;1.37;;;;;;;7.47;47.92;102548.28;1728696;82;21493;-43
2021/10/25 09:22:18;;;;;;;9.08;2.02;;;;;;;7.70;48.05;102545.86;1722049;82;20963;-41
2021/10/25 09:24:56;;;;;;;3.90;2.27;;;;;;;7.93;47.34;102545.16;1749840;82;20972;-43
2021/10/25 09:27:34;;;;;;;2.33;1.80;;;;;;;7.97;46.61;102549.60;1747373;82;21145;-42
2021/10/25 09:30:15;;;;;;;2.77;1.20;;;;;;;7.90;47.14;102545.09;1749738;82;20956;-44
2021/10/25 09:32:44;;;;;;;6.30;1.60;;;;;;;7.87;45.67;102541.14;1722309;80;21450;-43
2021/10/25 09:35:42;;;;;;;1.35;0.90;;;;;;;7.70;44.39;102548.01;1749861;82;20940;-42
2021/10/25 09:38:32;;;;;;;1.32;1.22;;;;;;;7.48;44.61;102547.45;1723173;82;20944;-43
2021/10/25 09:49:01;;;;;;;1.30;1.15;;;;;;;8.34;45.27;102535.45;1749879;82;20972;-44
2021/10/25 09:49:12;;;;;;;2.95;1.45;;;;;;;8.81;42.85;102536.13;1724060;82;21012;-44
2021/10/25 09:51:37;;;;;;;3.87;1.50;;;;;;;9.02;43.47;102528.39;1749208;82;21003;-43
2021/10/25 09:54:06;;;;;;;2.98;1.15;;;;;;;9.34;43.24;102543.68;1722411;82;21062;-43
2021/10/25 09:56:34;;;;;;;2.55;1.37;;;;;;;9.50;43.00;102534.51;1749837;82;20981;-43
2021/10/25 09:59:29;;;;;;;1.32;1.20;;;;;;;9.68;42.27;102546.05;1723523;82;20991;-43
2021/10/25 10:01:43;;;;;;;3.15;1.10;;;;;;;9.72;42.35;102543.97;1746675;82;20925;-43
2021/10/25 10:04:09;;;;;;;1.85;1.70;;;;;;;9.52;41.31;102548.77;1749811;82;21054;-43
2021/10/25 10:06:44;;;;;;;1.67;1.45;;;;;;;9.15;41.91;102536.84;1747470;82;21102;-43
2021/10/25 10:09:11;;;;;;;8.78;1.60;;;;;;;8.72;42.56;102539.80;1742835;82;20945;-41
2021/10/25 10:11:37;;;;;;;1.60;1.50;;;;;;;8.30;43.52;102534.50;1735804;82;21455;-42
2021/10/25 10:14:06;;;;;;;2.65;1.17;;;;;;;7.80;44.20;102535.38;1735832;82;21486;-44
2021/10/25 10:16:37;;;;;;;2.35;1.20;;;;;;;7.60;45.52;102537.00;1732662;82;20933;-42
2021/10/25 10:19:06;;;;;;;1.25;1.15;;;;;;;7.67;45.66;102543.20;1735738;82;21133;-42
2021/10/25 10:21:34;;;;;;;1.40;1.12;;;;;;;7.67;45.42;102536.33;1714732;82;20961;-43
2021/10/25 10:24:57;;;;;;;2.25;1.60;;;;;;;7.66;45.18;102536.30;1798263;79;22574;-42
2021/10/25 10:27:24;;;;;;;1.80;1.57;;;;;;;7.53;44.97;102533.38;1758108;81;20905;-43
2021/10/25 10:30:00;;;;;;;1.55;1.45;;;;;;;7.46;45.07;102534.94;1757978;81;21130;-43
2021/10/25 10:32:33;;;;;;;2.40;1.60;;;;;;;7.58;45.14;102532.22;1722711;83;20963;-43
2021/10/25 10:35:17;;;;;;;4.30;1.80;;;;;;;7.93;45.96;102523.68;1701318;83;20964;-42
2021/10/25 10:37:59;;;;;;;5.33;3.00;;;;;;;8.24;44.33;102520.17;1689810;83;20982;-42
2021/10/25 10:40:37;;;;;;;4.10;1.75;;;;;;;8.48;43.74;102522.88;1724642;83;20998;-42
2021/10/25 10:43:11;;;;;;;5.22;1.60;;;;;;;8.78;42.20;102516.69;1691433;83;21135;-44
2021/10/25 10:45:37;;;;;;;25.80;3.70;;;;;;;9.15;41.37;102519.19;1722768;83;20935;-43
2021/10/25 10:48:05;;;;;;;6.53;2.50;;;;;;;9.11;41.34;102513.07;1724594;83;20864;-43
2021/10/25 10:50:46;;;;;;;5.53;2.40;;;;;;;9.00;41.34;102523.18;1724593;83;20975;-43
2021/10/25 10:53:23;;;;;;;9.33;3.80;;;;;;;8.70;41.62;102520.80;1724148;83;20998;-43
2021/10/25 10:55:43;;;;;;;6.03;2.83;;;;;;;8.37;42.42;102523.91;1722963;83;22092;-43
2021/10/25 11:00:46;;;;;;;12.18;4.95;;;;;;;7.94;43.41;102519.83;1724504;83;20939;-43
2021/10/25 11:03:27;;;;;;;3.98;2.52;;;;;;;7.74;43.57;102515.06;1724370;83;20971;-43
2021/10/25 11:06:00;;;;;;;1.87;1.67;;;;;;;7.58;43.47;102513.78;1724520;83;20872;-41
2021/10/25 11:08:32;;;;;;;2.17;1.32;;;;;;;7.57;43.76;102511.15;1724594;83;21143;-41
2021/10/25 11:11:16;;;;;;;1.40;1.15;;;;;;;7.87;43.36;102506.34;1724749;83;21434;-42
2021/10/25 11:14:06;;;;;;;9.35;4.53;;;;;;;8.29;42.98;102510.82;1724490;83;28777;-43
2021/10/25 11:17:08;;;;;;;3.52;3.20;;;;;;;8.51;42.40;102508.78;1695981;83;21662;-43
2021/10/25 11:19:05;;;;;;;4.30;2.80;;;;;;;8.81;41.86;102503.84;1715359;83;20879;-43
2021/10/25 11:21:53;;;;;;;7.33;4.25;;;;;;;9.17;40.54;102509.31;1723745;83;21160;-43
2021/10/25 11:24:18;;;;;;;2.72;1.72;;;;;;;9.37;39.96;102513.16;1689109;84;24367;-43
2021/10/25 11:26:51;;;;;;;2.60;1.80;;;;;;;9.37;39.18;102511.42;1683471;85;21522;-43
2021/10/25 11:29:26;;;;;;;7.37;2.72;;;;;;;9.33;39.60;102513.07;1683012;85;20980;-43
2021/10/25 11:32:03;;;;;;;3.77;2.90;;;;;;;9.47;39.37;102514.66;1683902;85;20983;-43
2021/10/25 11:34:33;;;;;;;2.60;2.10;;;;;;;9.69;38.98;102507.27;1683453;85;21151;-43
2021/10/25 11:37:10;;;;;;;2.22;1.62;;;;;;;9.71;37.99;102517.66;1683117;84;20984;-44
2021/10/25 11:39:55;;;;;;;1.30;1.20;;;;;;;9.74;37.78;102513.42;1663254;85;21403;-43
2021/10/25 11:42:25;;;;;;;1.50;1.40;;;;;;;9.75;37.78;102498.76;1682711;85;21008;-43
2021/10/25 11:44:57;;;;;;;4.08;2.00;;;;;;;9.58;37.03;102498.46;1682967;84;20949;-43
2021/10/25 11:47:27;;;;;;;5.10;2.83;;;;;;;9.51;37.64;102505.66;1683185;84;21073;-43
2021/10/25 11:50:10;;;;;;;3.90;1.45;;;;;;;9.68;38.07;102505.53;1682973;85;20961;-44
2021/10/25 11:52:41;;;;;;;4.87;2.10;;;;;;;9.83;37.94;102502.78;1682966;85;20981;-43
2021/10/25 11:55:10;;;;;;;1.15;1.05;;;;;;;9.83;38.21;102498.90;1683037;85;20972;-43
2021/10/25 11:57:51;;;;;;;3.55;2.22;;;;;;;9.88;37.80;102499.44;1683287;85;21016;-44
2021/10/25 12:00:21;;;;;;;2.77;2.10;;;;;;;9.97;37.38;102501.28;1682771;85;21164;-44
2021/10/25 12:02:50;;;;;;;5.62;3.08;;;;;;;10.12;37.46;102501.09;1663268;85;21015;-44
2021/10/25 12:05:25;;;;;;;3.98;2.55;;;;;;;10.33;37.12;102499.26;1686369;84;20950;-43
2021/10/25 12:07:54;;;;;;;5.15;2.45;;;;;;;10.52;36.79;102499.16;1683012;85;21543;-44
2021/10/25 12:10:22;;;;;;;5.65;2.55;;;;;;;10.53;36.98;102503.49;1663416;85;20978;-44
2021/10/25 12:12:58;;;;;;;8.53;4.12;;;;;;;10.34;37.05;102504.88;1683170;84;21061;-43
2021/10/25 12:15:25;;;;;;;5.80;2.02;;;;;;;10.30;36.33;102506.98;1663046;85;21039;-43
2021/10/25 12:18:02;;;;;;;1.82;1.30;;;;;;;10.21;36.15;102506.41;1682935;85;21527;-44
2021/10/25 12:20:33;;;;;;;6.55;2.90;;;;;;;10.18;36.25;102497.31;1682878;84;21443;-43
2021/10/25 12:23:05;;;;;;;6.60;3.58;;;;;;;10.16;36.25;102497.30;1682214;85;21052;-43
2021/10/25 12:25:32;;;;;;;25.95;9.33;;;;;;;10.07;36.17;102494.55;1685562;84;21121;-43
2021/10/25 12:28:03;;;;;;;16.27;7.25;;;;;;;9.91;36.82;102493.02;1684432;83;20905;-44
2021/10/25 12:30:29;;;;;;;6.90;3.87;;;;;;;9.88;36.73;102503.72;1675241;84;21450;-43
2021/10/25 12:33:01;;;;;;;8.60;4.33;;;;;;;9.77;36.76;102499.66;1710986;83;21034;-42
2021/10/25 12:35:43;;;;;;;7.50;3.83;;;;;;;9.64;36.79;102501.16;1701507;84;20995;-42
2021/10/25 12:38:13;;;;;;;14.75;5.58;;;;;;;9.56;37.14;102505.33;1711150;83;21190;-43
2021/10/25 12:40:49;;;;;;;5.47;2.08;;;;;;;9.55;37.02;102501.85;1701656;84;21524;-43
2021/10/25 12:43:16;;;;;;;4.87;1.67;;;;;;;9.51;36.27;102502.64;1684813;83;20955;-43
2021/10/25 12:45:58;;;;;;;3.37;2.35;;;;;;;9.37;36.83;102502.38;1701354;84;20991;-43
2021/10/25 12:48:25;;;;;;;2.17;1.45;;;;;;;9.31;36.82;102499.69;1711205;83;20900;-44
2021/10/25 12:51:03;;;;;;;3.47;1.27;;;;;;;9.13;37.00;102498.47;1701265;84;21347;-43
2021/10/25 12:53:33;;;;;;;1.12;1.05;;;;;;;8.86;36.94;102498.34;1711414;82;20979;-43
2021/10/25 12:56:00;;;;;;;1.72;1.02;;;;;;;8.68;37.69;102499.23;1701492;84;21047;-44
2021/10/25 12:58:28;;;;;;;2.92;2.05;;;;;;;8.67;37.14;102498.38;1711340;82;20944;-44
2021/10/25 13:00:55;;;;;;;12.33;4.28;;;;;;;8.57;37.94;102494.72;1701381;84;21054;-43
2021/10/25 13:03:29;;;;;;;5.65;2.30;;;;;;;8.60;38.50;102496.07;1711325;83;21736;-42
2021/10/25 13:06:08;;;;;;;2.77;1.40;;;;;;;8.70;38.21;102497.16;1701296;84;21403;-42
2021/10/25 13:08:37;;;;;;;3.60;1.52;;;;;;;8.70;38.38;102493.28;1711100;82;21022;-42
2021/10/25 13:11:05;;;;;;;3.05;1.95;;;;;;;8.65;38.62;102498.77;1701197;84;20940;-43
2021/10/25 13:13:33;;;;;;;2.17;1.62;;;;;;;8.65;38.25;102497.87;1710916;83;21529;-44
2021/10/25 13:16:02;;;;;;;1.95;1.80;;;;;;;8.64;37.96;102487.98;1701448;84;20965;-44
2021/10/25 13:18:29;;;;;;;2.87;1.80;;;;;;;8.62;38.12;102496.97;1678287;85;20983;-44
2021/10/25 13:20:57;;;;;;;5.80;3.22;;;;;;;8.66;38.46;102490.18;1701326;84;20980;-44
2021/10/25 13:23:24;;;;;;;5.75;3.00;;;;;;;8.70;38.41;102489.41;1711118;83;21501;-43